createdAt,value
2022-12-15T00:00:03.518Z,5.60
2022-12-15T00:02:50.823Z,5.60
2022-12-15T00:05:36.761Z,5.60
2022-12-15T00:08:25.791Z,5.60
2022-12-15T00:11:11.121Z,5.60
2022-12-15T00:13:56.784Z,5.50
2022-12-15T00:16:42.263Z,5.50
2022-12-15T00:19:29.367Z,5.60
2022-12-15T00:22:14.682Z,5.60
2022-12-15T00:25:00.224Z,5.60
2022-12-15T00:27:46.137Z,5.60
2022-12-15T00:30:32.092Z,5.60
2022-12-15T00:33:17.443Z,5.60
2022-12-15T00:36:04.673Z,5.60
2022-12-15T00:38:45.079Z,5.60
2022-12-15T00:41:15.533Z,5.60
2022-12-15T00:43:44.052Z,5.60
2022-12-15T00:46:30.140Z,5.60
2022-12-15T00:48:58.885Z,5.60
2022-12-15T00:51:46.452Z,5.60
2022-12-15T00:54:31.972Z,5.60
2022-12-15T00:57:17.530Z,5.60
2022-12-15T01:00:02.868Z,5.60
2022-12-15T01:02:48.522Z,5.60
2022-12-15T01:05:34.239Z,5.60
2022-12-15T01:08:20.907Z,5.70
2022-12-15T01:11:06.294Z,5.70
2022-12-15T01:13:52.046Z,5.70
2022-12-15T01:16:37.339Z,5.70
2022-12-15T01:19:23.174Z,5.70
2022-12-15T01:21:51.349Z,5.70
2022-12-15T01:24:20.891Z,5.70
2022-12-15T01:26:49.200Z,5.70
2022-12-15T01:29:17.456Z,5.70
2022-12-15T01:31:49.882Z,5.70
2022-12-15T01:34:20.132Z,5.70
2022-12-15T01:36:48.498Z,5.70
2022-12-15T01:39:17.175Z,5.70
2022-12-15T01:41:45.793Z,5.70
2022-12-15T01:44:21.719Z,5.70
2022-12-15T01:46:52.345Z,5.70
2022-12-15T01:49:27.375Z,5.70
2022-12-15T01:52:00.489Z,5.80
2022-12-15T01:54:31.869Z,5.70
2022-12-15T01:57:05.996Z,5.80
2022-12-15T01:59:38.813Z,5.80
2022-12-15T02:02:07.393Z,5.80
2022-12-15T02:04:37.851Z,5.70
2022-12-15T02:07:06.152Z,5.70
2022-12-15T02:09:34.398Z,5.80
2022-12-15T02:12:11.038Z,5.70
2022-12-15T02:14:48.433Z,5.80
2022-12-15T02:17:26.127Z,5.80
2022-12-15T02:20:25.158Z,5.80
2022-12-15T02:23:37.634Z,5.70
2022-12-15T02:26:44.333Z,5.80
2022-12-15T02:29:41.239Z,5.80
2022-12-15T02:32:13.558Z,5.80
2022-12-15T02:34:45.449Z,5.90
2022-12-15T02:37:19.101Z,5.80
2022-12-15T02:39:47.374Z,5.70
2022-12-15T02:42:15.667Z,5.70
2022-12-15T02:44:48.604Z,5.70
2022-12-15T02:47:31.259Z,5.70
2022-12-15T02:50:18.079Z,5.80
2022-12-15T02:53:00.063Z,5.80
2022-12-15T02:55:37.132Z,5.80
2022-12-15T02:58:12.368Z,5.80
2022-12-15T03:00:44.460Z,5.80
2022-12-15T03:03:20.218Z,5.80
2022-12-15T03:05:49.069Z,5.70
2022-12-15T03:08:17.303Z,5.80
2022-12-15T03:10:45.549Z,5.70
2022-12-15T03:13:14.231Z,5.80
2022-12-15T03:15:42.631Z,5.80
2022-12-15T03:18:10.897Z,5.70
2022-12-15T03:20:40.430Z,5.70
2022-12-15T03:23:08.705Z,5.80
2022-12-15T03:25:37.751Z,5.80
2022-12-15T03:28:06.149Z,5.80
2022-12-15T03:30:34.301Z,5.70
2022-12-15T03:33:02.490Z,5.80
2022-12-15T03:35:31.057Z,5.80
2022-12-15T03:38:00.879Z,5.80
2022-12-15T03:40:29.059Z,5.80
2022-12-15T03:42:58.133Z,5.80
2022-12-15T03:45:28.692Z,5.80
2022-12-15T03:47:58.242Z,5.80
2022-12-15T03:50:28.813Z,5.80
2022-12-15T03:52:58.943Z,5.80
2022-12-15T03:55:29.244Z,5.80
2022-12-15T03:57:58.055Z,5.80
2022-12-15T04:00:26.769Z,5.80
2022-12-15T04:02:55.227Z,5.80
2022-12-15T04:05:26.109Z,5.80
2022-12-15T04:07:54.633Z,5.90
2022-12-15T04:10:26.296Z,5.90
2022-12-15T04:13:00.285Z,5.80
2022-12-15T04:15:29.291Z,5.80
2022-12-15T04:17:58.373Z,5.90
2022-12-15T04:20:26.604Z,5.90
2022-12-15T04:22:54.781Z,5.90
2022-12-15T04:25:42.606Z,5.90
2022-12-15T04:28:30.657Z,5.90
2022-12-15T04:31:19.422Z,5.90
2022-12-15T04:34:08.148Z,5.90
2022-12-15T04:36:55.079Z,5.90
2022-12-15T04:39:40.930Z,5.80
2022-12-15T04:42:26.369Z,5.80
2022-12-15T04:45:20.542Z,5.80
2022-12-15T04:48:06.526Z,5.80
2022-12-15T04:50:52.407Z,5.70
2022-12-15T04:53:39.739Z,5.70
2022-12-15T04:56:29.993Z,5.70
2022-12-15T04:59:15.800Z,5.70
2022-12-15T05:02:03.222Z,5.70
2022-12-15T05:04:49.254Z,5.70
2022-12-15T05:07:34.978Z,5.70
2022-12-15T05:10:20.948Z,5.70
2022-12-15T05:13:06.345Z,5.70
2022-12-15T05:15:52.414Z,5.70
2022-12-15T05:18:39.687Z,5.70
2022-12-15T05:21:26.016Z,5.70
2022-12-15T05:24:11.926Z,5.70
2022-12-15T05:26:57.486Z,5.70
2022-12-15T05:29:42.982Z,5.70
2022-12-15T05:32:13.218Z,5.70
2022-12-15T05:34:42.745Z,5.70
2022-12-15T05:37:12.254Z,5.70
2022-12-15T05:39:40.428Z,5.70
2022-12-15T05:42:09.095Z,5.70
2022-12-15T05:44:37.274Z,5.70
2022-12-15T05:47:05.934Z,5.70
2022-12-15T05:49:34.386Z,5.70
2022-12-15T05:52:04.370Z,5.70
2022-12-15T05:54:32.923Z,5.70
2022-12-15T05:57:01.167Z,5.70
2022-12-15T05:59:29.325Z,5.70
2022-12-15T06:01:57.530Z,5.60
2022-12-15T06:04:26.043Z,5.60
2022-12-15T06:06:54.222Z,5.60
2022-12-15T06:09:23.804Z,5.60
2022-12-15T06:11:51.928Z,5.70
2022-12-15T06:14:20.083Z,5.60
2022-12-15T06:16:51.085Z,5.60
2022-12-15T06:19:20.684Z,5.70
2022-12-15T06:21:49.032Z,5.60
2022-12-15T06:24:17.198Z,5.60
2022-12-15T06:26:49.854Z,5.60
2022-12-15T06:29:18.880Z,5.60
2022-12-15T06:31:47.245Z,5.60
2022-12-15T06:34:17.147Z,5.60
2022-12-15T06:36:45.645Z,5.70
2022-12-15T06:39:15.734Z,5.70
2022-12-15T06:41:46.061Z,5.80
2022-12-15T06:44:15.949Z,5.90
2022-12-15T06:46:46.441Z,6.00
2022-12-15T06:49:15.732Z,6.10
2022-12-15T06:51:45.028Z,6.10
2022-12-15T06:54:13.550Z,6.20
2022-12-15T06:56:42.670Z,6.30
2022-12-15T06:59:13.368Z,6.40
2022-12-15T07:01:42.936Z,6.40
2022-12-15T07:04:11.729Z,6.50
2022-12-15T07:06:40.901Z,6.50
2022-12-15T07:09:13.558Z,6.60
2022-12-15T07:11:41.727Z,6.60
2022-12-15T07:14:12.331Z,6.60
2022-12-15T07:16:41.158Z,6.70
2022-12-15T07:19:13.052Z,6.70
2022-12-15T07:21:42.265Z,6.70
2022-12-15T07:24:12.678Z,6.80
2022-12-15T07:26:41.621Z,6.80
2022-12-15T07:31:39.754Z,6.80
2022-12-15T07:41:34.304Z,6.80
2022-12-15T07:44:03.131Z,6.80
2022-12-15T07:46:31.375Z,6.60
2022-12-15T07:49:01.028Z,6.50
2022-12-15T07:53:57.619Z,6.30
2022-12-15T07:56:25.807Z,6.00
2022-12-15T07:58:54.345Z,5.90
2022-12-15T08:01:22.781Z,5.80
2022-12-15T08:06:21.096Z,5.70
2022-12-15T08:11:21.716Z,5.60
2022-12-15T08:14:02.522Z,5.50
2022-12-15T08:44:17.428Z,5.40
2022-12-15T08:46:45.779Z,5.30
2022-12-15T10:51:21.017Z,5.40
2022-12-15T10:53:52.289Z,5.50
2022-12-15T10:56:30.633Z,5.80
2022-12-15T10:59:25.154Z,5.80
2022-12-15T11:01:54.868Z,5.70
2022-12-15T11:04:30.845Z,5.70
2022-12-15T11:07:00.699Z,5.60
2022-12-15T11:09:34.495Z,5.60
2022-12-15T11:12:21.742Z,5.60
2022-12-15T11:14:52.189Z,5.60
2022-12-15T11:17:23.457Z,5.60
2022-12-15T11:20:02.310Z,5.50
2022-12-15T11:22:41.946Z,5.50
2022-12-15T11:25:23.711Z,5.50
2022-12-15T11:27:56.010Z,5.50
2022-12-15T11:30:27.146Z,5.40
2022-12-15T11:33:00.986Z,5.40
2022-12-15T11:35:50.257Z,5.30
2022-12-15T11:38:29.775Z,5.30
2022-12-15T11:41:06.435Z,5.30
2022-12-15T11:44:06.263Z,5.20
2022-12-15T11:46:41.117Z,5.20
2022-12-15T11:49:41.384Z,5.20
2022-12-15T11:52:16.593Z,5.30
2022-12-15T11:54:51.181Z,5.40
2022-12-15T11:57:43.908Z,5.40
2022-12-15T12:00:16.404Z,5.40
2022-12-15T12:03:16.539Z,5.40
2022-12-15T12:06:12.170Z,5.30
2022-12-15T12:08:58.550Z,5.30
2022-12-15T12:11:33.808Z,5.20
2022-12-15T12:14:28.085Z,5.20
2022-12-15T12:17:03.132Z,5.20
2022-12-15T12:19:36.888Z,5.20
2022-12-15T12:22:15.265Z,5.20
2022-12-15T12:24:50.782Z,5.20
2022-12-15T12:27:30.140Z,5.20
2022-12-15T12:30:03.386Z,5.20
2022-12-15T12:32:41.316Z,5.20
2022-12-15T12:35:32.012Z,5.20
2022-12-15T12:38:04.869Z,5.20
2022-12-15T12:40:46.397Z,5.20
2022-12-15T12:43:23.585Z,5.20
2022-12-15T12:45:55.762Z,5.20
2022-12-15T12:48:31.666Z,5.20
2022-12-15T12:51:20.703Z,5.30
2022-12-15T12:53:50.522Z,5.40
2022-12-15T12:56:50.380Z,5.50
2022-12-15T12:59:52.141Z,5.50
2022-12-15T13:02:44.816Z,5.40
2022-12-15T13:05:32.512Z,5.40
2022-12-15T13:08:40.410Z,5.40
2022-12-15T13:11:56.529Z,5.40
2022-12-15T13:14:51.657Z,5.40
2022-12-15T13:17:29.090Z,5.30
2022-12-15T13:20:25.893Z,5.30
2022-12-15T13:22:55.585Z,5.30
2022-12-15T13:25:48.557Z,5.30
2022-12-15T13:28:59.546Z,5.30
2022-12-15T13:31:49.385Z,5.30
2022-12-15T13:34:29.174Z,5.30
2022-12-15T13:37:03.456Z,5.30
2022-12-15T13:39:53.971Z,5.30
2022-12-15T13:45:51.964Z,5.30
2022-12-15T13:48:35.065Z,5.30
2022-12-15T13:51:19.829Z,5.30
2022-12-15T13:53:52.287Z,5.40
2022-12-15T13:56:29.334Z,5.40
2022-12-15T13:59:04.135Z,5.40
2022-12-15T14:01:34.145Z,5.40
2022-12-15T14:04:07.755Z,5.40
2022-12-15T14:06:39.208Z,5.40
2022-12-15T14:09:13.633Z,5.50
2022-12-15T14:11:58.616Z,5.50
2022-12-15T14:14:30.348Z,5.40
2022-12-15T14:17:02.736Z,5.50
2022-12-15T14:19:42.205Z,5.50
2022-12-15T14:22:27.472Z,5.50
2022-12-15T14:25:03.215Z,5.50
2022-12-15T14:27:33.780Z,5.50
2022-12-15T14:30:23.391Z,5.50
2022-12-15T14:32:56.784Z,5.50
2022-12-15T14:35:31.534Z,5.50
2022-12-15T14:38:03.390Z,5.50
2022-12-15T14:40:31.869Z,5.50
2022-12-15T14:43:00.312Z,5.50
2022-12-15T14:45:32.581Z,5.50
2022-12-15T14:50:52.465Z,5.50
2022-12-15T14:53:22.623Z,5.60
2022-12-15T14:55:51.579Z,5.60
2022-12-15T14:58:33.730Z,5.60
2022-12-15T15:01:03.869Z,5.60
2022-12-15T15:03:13.202Z,5.30
2022-12-15T15:03:39.131Z,5.60
2022-12-15T15:06:17.125Z,5.70
2022-12-15T15:08:50.049Z,5.70
2022-12-15T15:11:29.389Z,5.70
2022-12-15T15:14:01.248Z,5.70
2022-12-15T15:21:35.060Z,5.70
2022-12-15T15:24:04.994Z,5.80
2022-12-15T15:26:33.381Z,5.90
2022-12-15T15:29:01.666Z,5.90
2022-12-15T15:31:41.325Z,5.90
2022-12-15T15:34:11.631Z,6.00
2022-12-15T15:36:40.903Z,6.00
2022-12-15T15:39:15.263Z,6.00
2022-12-15T15:41:43.808Z,6.00
2022-12-15T15:44:14.838Z,6.10
2022-12-15T15:46:47.305Z,6.10
2022-12-15T15:49:20.345Z,6.10
2022-12-15T15:51:48.845Z,6.20
2022-12-15T15:54:19.109Z,6.30
2022-12-15T15:56:47.240Z,6.30
2022-12-15T15:59:17.449Z,6.30
2022-12-15T16:01:46.584Z,6.30
2022-12-15T16:04:16.290Z,6.40
2022-12-15T16:06:47.508Z,6.40
2022-12-15T16:09:17.031Z,6.40
2022-12-15T16:11:46.921Z,6.40
2022-12-15T16:14:16.941Z,6.50
2022-12-15T16:16:45.826Z,6.40
2022-12-15T16:19:14.087Z,6.40
2022-12-15T16:21:44.550Z,6.40
2022-12-15T16:24:17.285Z,6.40
2022-12-15T16:26:48.686Z,6.40
2022-12-15T16:29:18.568Z,6.40
2022-12-15T16:34:16.653Z,6.30
2022-12-15T17:27:31.898Z,6.40
2022-12-15T17:34:58.129Z,6.30
2022-12-15T17:37:30.541Z,6.40
2022-12-15T18:07:27.801Z,6.70
2022-12-15T18:09:55.997Z,7.10
2022-12-15T18:12:26.161Z,7.00
2022-12-15T18:14:56.822Z,7.00
2022-12-15T18:17:25.458Z,7.00
2022-12-15T18:19:53.578Z,7.00
2022-12-15T18:22:23.581Z,7.00
2022-12-15T18:24:53.410Z,7.00
2022-12-15T18:27:24.589Z,7.00
2022-12-15T18:29:52.912Z,7.00
2022-12-15T18:32:23.729Z,7.00
2022-12-15T18:34:52.355Z,7.00
2022-12-15T18:37:22.957Z,7.00
2022-12-15T18:39:51.632Z,7.00
2022-12-15T18:42:21.955Z,7.00
2022-12-15T18:44:52.186Z,7.00
2022-12-15T18:47:25.047Z,7.00
2022-12-15T18:49:53.460Z,7.00
2022-12-15T18:52:23.580Z,7.00
2022-12-15T18:54:54.129Z,7.00
2022-12-15T18:57:30.689Z,7.00
2022-12-15T18:59:59.934Z,7.00
2022-12-15T19:02:29.629Z,7.00
2022-12-15T19:04:57.944Z,7.00
2022-12-15T19:07:26.193Z,7.00
2022-12-15T19:09:54.753Z,7.00
2022-12-15T19:12:22.992Z,7.10
2022-12-15T19:43:00.034Z,7.10
2022-12-15T19:57:56.607Z,7.20
2022-12-15T20:00:25.289Z,7.30
2022-12-15T20:02:55.024Z,7.30
2022-12-15T20:05:24.317Z,7.30
2022-12-15T20:07:53.535Z,7.30
2022-12-15T20:10:31.240Z,7.30
2022-12-15T20:13:00.670Z,7.30
2022-12-15T20:15:29.035Z,7.30
2022-12-15T20:17:57.753Z,7.30
2022-12-15T20:20:28.846Z,7.30
2022-12-15T20:22:58.845Z,7.40
2022-12-15T20:25:31.197Z,7.30
2022-12-15T20:28:01.381Z,7.40
2022-12-15T20:30:32.750Z,7.40
2022-12-15T20:33:02.618Z,7.40
2022-12-15T20:35:33.317Z,7.30
2022-12-15T20:38:02.175Z,7.40
2022-12-15T20:40:32.388Z,7.40
2022-12-15T20:43:00.551Z,7.40
2022-12-15T20:45:28.836Z,7.30
2022-12-15T20:47:57.818Z,7.40
2022-12-15T20:50:29.401Z,7.40
2022-12-15T20:52:57.576Z,7.30
2022-12-15T20:55:25.772Z,7.40
2022-12-15T20:57:55.287Z,7.40
2022-12-15T21:00:24.056Z,7.40
2022-12-15T21:02:55.219Z,7.40
2022-12-15T21:05:25.820Z,7.40
2022-12-15T21:07:54.277Z,7.40
2022-12-15T21:10:22.556Z,7.40
2022-12-15T21:12:51.685Z,7.50
2022-12-15T21:15:22.894Z,7.50
2022-12-15T21:18:17.007Z,7.50
2022-12-15T21:20:42.931Z,7.50
2022-12-15T21:23:24.156Z,7.50
2022-12-15T21:25:53.441Z,7.50
2022-12-15T21:28:22.649Z,7.50
2022-12-15T21:30:52.939Z,7.60
2022-12-15T21:33:21.176Z,7.60
2022-12-15T21:35:49.551Z,7.60
2022-12-15T21:38:33.485Z,7.60
2022-12-15T21:41:04.133Z,7.60
2022-12-15T21:43:35.606Z,7.60
2022-12-15T21:46:14.430Z,7.60
2022-12-15T21:49:00.522Z,7.70
2022-12-15T21:51:31.620Z,7.70
2022-12-15T21:54:00.003Z,7.70
2022-12-15T21:56:29.668Z,7.70
2022-12-15T21:58:59.070Z,7.70
2022-12-15T22:01:31.602Z,7.70
2022-12-15T22:04:03.581Z,7.70
2022-12-15T22:06:31.870Z,7.80
2022-12-15T22:09:00.301Z,7.80
2022-12-15T22:11:30.808Z,7.80
2022-12-15T22:14:02.036Z,7.80
2022-12-15T22:16:31.651Z,7.80
2022-12-15T22:19:00.303Z,7.80
2022-12-15T22:21:28.509Z,7.90
2022-12-15T22:23:56.674Z,7.90
2022-12-15T22:26:29.958Z,7.90
2022-12-15T22:58:57.119Z,7.90
2022-12-15T23:01:26.869Z,8.10
2022-12-15T23:03:55.677Z,8.00
